sensor_id;sensor_type;location;lat;lon;timestamp;P1;durP1;ratioP1;P2;durP2;ratioP2
49910;SDS011;35803;53.096;5.844;2023-03-20T00:01:59;5.85;;;3.05;;
49910;SDS011;35803;53.096;5.844;2023-03-20T00:04:24;7.95;;;3.30;;
49910;SDS011;35803;53.096;5.844;2023-03-20T00:06:50;7.78;;;3.20;;
49910;SDS011;35803;53.096;5.844;2023-03-20T00:09:15;8.55;;;3.63;;
49910;SDS011;35803;53.096;5.844;2023-03-20T00:11:52;6.13;;;3.20;;
49910;SDS011;35803;53.096;5.844;2023-03-20T00:14:19;7.38;;;3.63;;
49910;SDS011;35803;53.096;5.844;2023-03-20T00:16:47;8.57;;;3.65;;
49910;SDS011;35803;53.096;5.844;2023-03-20T00:21:47;6.25;;;3.75;;
49910;SDS011;35803;53.096;5.844;2023-03-20T00:24:14;6.75;;;3.33;;
49910;SDS011;35803;53.096;5.844;2023-03-20T00:26:42;7.10;;;3.90;;
49910;SDS011;35803;53.096;5.844;2023-03-20T00:29:14;9.38;;;3.40;;
49910;SDS011;35803;53.096;5.844;2023-03-20T00:31:44;8.02;;;3.25;;
49910;SDS011;35803;53.096;5.844;2023-03-20T00:34:14;7.30;;;3.42;;
49910;SDS011;35803;53.096;5.844;2023-03-20T00:36:41;8.88;;;3.28;;
49910;SDS011;35803;53.096;5.844;2023-03-20T00:39:10;6.03;;;2.95;;
49910;SDS011;35803;53.096;5.844;2023-03-20T00:46:50;7.65;;;2.72;;
49910;SDS011;35803;53.096;5.844;2023-03-20T00:49:19;8.75;;;3.40;;
49910;SDS011;35803;53.096;5.844;2023-03-20T00:51:47;10.30;;;3.30;;
49910;SDS011;35803;53.096;5.844;2023-03-20T00:54:13;9.73;;;3.20;;
49910;SDS011;35803;53.096;5.844;2023-03-20T00:59:22;9.95;;;3.38;;
49910;SDS011;35803;53.096;5.844;2023-03-20T01:01:49;7.95;;;3.53;;
49910;SDS011;35803;53.096;5.844;2023-03-20T01:04:16;7.93;;;3.65;;
49910;SDS011;35803;53.096;5.844;2023-03-20T01:06:43;9.57;;;3.30;;
49910;SDS011;35803;53.096;5.844;2023-03-20T01:09:09;8.68;;;3.40;;
49910;SDS011;35803;53.096;5.844;2023-03-20T01:11:35;9.23;;;3.70;;
49910;SDS011;35803;53.096;5.844;2023-03-20T01:14:01;10.23;;;3.35;;
49910;SDS011;35803;53.096;5.844;2023-03-20T01:16:27;7.03;;;3.45;;
49910;SDS011;35803;53.096;5.844;2023-03-20T01:18:53;11.35;;;3.72;;
49910;SDS011;35803;53.096;5.844;2023-03-20T01:21:18;6.90;;;3.50;;
49910;SDS011;35803;53.096;5.844;2023-03-20T01:23:45;11.25;;;3.60;;
49910;SDS011;35803;53.096;5.844;2023-03-20T01:26:17;12.00;;;3.75;;
49910;SDS011;35803;53.096;5.844;2023-03-20T01:28:46;10.50;;;3.75;;
49910;SDS011;35803;53.096;5.844;2023-03-20T01:31:14;7.28;;;3.67;;
49910;SDS011;35803;53.096;5.844;2023-03-20T01:33:41;9.93;;;4.05;;
49910;SDS011;35803;53.096;5.844;2023-03-20T01:36:08;9.35;;;3.88;;
49910;SDS011;35803;53.096;5.844;2023-03-20T01:38:37;9.07;;;3.97;;
49910;SDS011;35803;53.096;5.844;2023-03-20T01:41:13;9.55;;;3.95;;
49910;SDS011;35803;53.096;5.844;2023-03-20T01:43:43;11.10;;;3.95;;
49910;SDS011;35803;53.096;5.844;2023-03-20T01:53:43;9.95;;;4.35;;
49910;SDS011;35803;53.096;5.844;2023-03-20T01:56:10;13.70;;;4.55;;
49910;SDS011;35803;53.096;5.844;2023-03-20T01:58:38;10.63;;;4.57;;
49910;SDS011;35803;53.096;5.844;2023-03-20T02:01:07;10.00;;;4.65;;
49910;SDS011;35803;53.096;5.844;2023-03-20T02:03:35;10.18;;;4.93;;
49910;SDS011;35803;53.096;5.844;2023-03-20T02:06:00;9.05;;;4.82;;
49910;SDS011;35803;53.096;5.844;2023-03-20T02:08:26;13.75;;;4.55;;
49910;SDS011;35803;53.096;5.844;2023-03-20T02:10:54;10.80;;;4.50;;
49910;SDS011;35803;53.096;5.844;2023-03-20T02:13:21;6.90;;;3.88;;
49910;SDS011;35803;53.096;5.844;2023-03-20T02:18:23;8.95;;;4.15;;
49910;SDS011;35803;53.096;5.844;2023-03-20T02:31:44;10.98;;;4.97;;
49910;SDS011;35803;53.096;5.844;2023-03-20T02:42:18;12.73;;;4.82;;
49910;SDS011;35803;53.096;5.844;2023-03-20T02:56:57;9.60;;;4.45;;
49910;SDS011;35803;53.096;5.844;2023-03-20T02:59:28;6.68;;;4.15;;
49910;SDS011;35803;53.096;5.844;2023-03-20T03:01:59;8.23;;;3.88;;
49910;SDS011;35803;53.096;5.844;2023-03-20T03:04:29;6.70;;;4.05;;
49910;SDS011;35803;53.096;5.844;2023-03-20T03:07:01;9.38;;;4.28;;
49910;SDS011;35803;53.096;5.844;2023-03-20T03:09:37;10.63;;;3.70;;
49910;SDS011;35803;53.096;5.844;2023-03-20T03:12:12;7.53;;;4.38;;
49910;SDS011;35803;53.096;5.844;2023-03-20T03:14:52;9.05;;;4.25;;
49910;SDS011;35803;53.096;5.844;2023-03-20T03:17:21;7.63;;;4.07;;
49910;SDS011;35803;53.096;5.844;2023-03-20T03:19:48;7.03;;;4.00;;
49910;SDS011;35803;53.096;5.844;2023-03-20T03:22:15;6.28;;;3.83;;
49910;SDS011;35803;53.096;5.844;2023-03-20T03:24:43;6.28;;;3.90;;
49910;SDS011;35803;53.096;5.844;2023-03-20T03:30:20;8.35;;;4.50;;
49910;SDS011;35803;53.096;5.844;2023-03-20T03:32:56;10.57;;;4.20;;
49910;SDS011;35803;53.096;5.844;2023-03-20T03:35:42;7.35;;;4.55;;
49910;SDS011;35803;53.096;5.844;2023-03-20T03:46:39;10.40;;;5.28;;
49910;SDS011;35803;53.096;5.844;2023-03-20T03:49:09;11.15;;;5.82;;
49910;SDS011;35803;53.096;5.844;2023-03-20T03:51:39;14.90;;;6.38;;
49910;SDS011;35803;53.096;5.844;2023-03-20T03:54:10;12.20;;;5.88;;
49910;SDS011;35803;53.096;5.844;2023-03-20T03:56:39;14.57;;;6.60;;
49910;SDS011;35803;53.096;5.844;2023-03-20T03:59:07;13.45;;;6.90;;
49910;SDS011;35803;53.096;5.844;2023-03-20T04:01:35;14.70;;;6.78;;
49910;SDS011;35803;53.096;5.844;2023-03-20T04:04:03;14.23;;;6.88;;
49910;SDS011;35803;53.096;5.844;2023-03-20T04:06:31;13.48;;;6.10;;
49910;SDS011;35803;53.096;5.844;2023-03-20T04:08:57;14.55;;;6.65;;
49910;SDS011;35803;53.096;5.844;2023-03-20T04:11:24;13.70;;;5.75;;
49910;SDS011;35803;53.096;5.844;2023-03-20T04:13:50;13.98;;;6.43;;
49910;SDS011;35803;53.096;5.844;2023-03-20T04:16:17;10.93;;;5.75;;
49910;SDS011;35803;53.096;5.844;2023-03-20T04:18:44;12.43;;;5.70;;
49910;SDS011;35803;53.096;5.844;2023-03-20T04:21:10;14.63;;;5.55;;
49910;SDS011;35803;53.096;5.844;2023-03-20T04:23:36;12.68;;;5.68;;
49910;SDS011;35803;53.096;5.844;2023-03-20T04:26:02;12.75;;;5.40;;
49910;SDS011;35803;53.096;5.844;2023-03-20T04:28:28;14.48;;;5.93;;
49910;SDS011;35803;53.096;5.844;2023-03-20T04:30:54;13.45;;;5.80;;
49910;SDS011;35803;53.096;5.844;2023-03-20T04:33:20;11.60;;;5.78;;
49910;SDS011;35803;53.096;5.844;2023-03-20T04:35:46;17.83;;;6.35;;
49910;SDS011;35803;53.096;5.844;2023-03-20T04:38:11;13.50;;;6.50;;
49910;SDS011;35803;53.096;5.844;2023-03-20T04:40:37;15.63;;;6.45;;
49910;SDS011;35803;53.096;5.844;2023-03-20T04:43:02;14.50;;;6.75;;
49910;SDS011;35803;53.096;5.844;2023-03-20T04:45:28;16.08;;;7.03;;
49910;SDS011;35803;53.096;5.844;2023-03-20T04:47:53;18.88;;;6.90;;
49910;SDS011;35803;53.096;5.844;2023-03-20T04:50:19;16.13;;;7.78;;
49910;SDS011;35803;53.096;5.844;2023-03-20T04:52:44;20.27;;;8.07;;
49910;SDS011;35803;53.096;5.844;2023-03-20T04:55:10;19.77;;;8.52;;
49910;SDS011;35803;53.096;5.844;2023-03-20T04:57:35;21.05;;;8.23;;
49910;SDS011;35803;53.096;5.844;2023-03-20T05:00:01;20.10;;;8.65;;
49910;SDS011;35803;53.096;5.844;2023-03-20T05:02:28;23.40;;;8.93;;
49910;SDS011;35803;53.096;5.844;2023-03-20T05:04:53;18.88;;;8.88;;
49910;SDS011;35803;53.096;5.844;2023-03-20T05:07:19;20.08;;;8.48;;
49910;SDS011;35803;53.096;5.844;2023-03-20T05:09:45;19.45;;;8.85;;
49910;SDS011;35803;53.096;5.844;2023-03-20T05:12:11;19.92;;;8.15;;
49910;SDS011;35803;53.096;5.844;2023-03-20T05:14:36;20.55;;;7.88;;
49910;SDS011;35803;53.096;5.844;2023-03-20T05:17:02;18.42;;;7.65;;
49910;SDS011;35803;53.096;5.844;2023-03-20T05:19:27;16.88;;;8.15;;
49910;SDS011;35803;53.096;5.844;2023-03-20T05:21:53;18.85;;;8.15;;
49910;SDS011;35803;53.096;5.844;2023-03-20T05:24:18;22.20;;;8.95;;
49910;SDS011;35803;53.096;5.844;2023-03-20T05:26:45;19.95;;;8.63;;
49910;SDS011;35803;53.096;5.844;2023-03-20T05:29:10;14.15;;;6.70;;
49910;SDS011;35803;53.096;5.844;2023-03-20T05:31:36;16.33;;;7.47;;
49910;SDS011;35803;53.096;5.844;2023-03-20T05:34:01;17.73;;;7.72;;
49910;SDS011;35803;53.096;5.844;2023-03-20T05:36:27;21.73;;;8.18;;
49910;SDS011;35803;53.096;5.844;2023-03-20T05:38:52;16.58;;;7.57;;
49910;SDS011;35803;53.096;5.844;2023-03-20T05:41:17;18.45;;;8.00;;
49910;SDS011;35803;53.096;5.844;2023-03-20T05:43:43;17.48;;;7.93;;
49910;SDS011;35803;53.096;5.844;2023-03-20T05:46:08;20.33;;;9.05;;
49910;SDS011;35803;53.096;5.844;2023-03-20T05:48:34;22.50;;;8.70;;
49910;SDS011;35803;53.096;5.844;2023-03-20T05:50:59;16.23;;;8.35;;
49910;SDS011;35803;53.096;5.844;2023-03-20T05:53:25;16.98;;;8.20;;
49910;SDS011;35803;53.096;5.844;2023-03-20T05:55:50;19.20;;;8.15;;
49910;SDS011;35803;53.096;5.844;2023-03-20T05:58:15;20.58;;;9.57;;
49910;SDS011;35803;53.096;5.844;2023-03-20T06:00:44;19.25;;;8.98;;
49910;SDS011;35803;53.096;5.844;2023-03-20T06:03:09;19.35;;;9.63;;
49910;SDS011;35803;53.096;5.844;2023-03-20T06:05:36;20.50;;;9.10;;
49910;SDS011;35803;53.096;5.844;2023-03-20T06:08:01;20.23;;;9.30;;
49910;SDS011;35803;53.096;5.844;2023-03-20T06:10:27;18.33;;;9.02;;
49910;SDS011;35803;53.096;5.844;2023-03-20T06:12:54;19.10;;;9.35;;
49910;SDS011;35803;53.096;5.844;2023-03-20T06:15:21;19.23;;;9.80;;
49910;SDS011;35803;53.096;5.844;2023-03-20T06:17:46;21.73;;;9.40;;
49910;SDS011;35803;53.096;5.844;2023-03-20T06:20:12;22.92;;;9.73;;
49910;SDS011;35803;53.096;5.844;2023-03-20T06:22:38;20.55;;;9.55;;
49910;SDS011;35803;53.096;5.844;2023-03-20T06:25:04;24.92;;;10.45;;
49910;SDS011;35803;53.096;5.844;2023-03-20T06:27:30;20.63;;;10.15;;
49910;SDS011;35803;53.096;5.844;2023-03-20T06:29:56;21.77;;;9.60;;
49910;SDS011;35803;53.096;5.844;2023-03-20T06:32:21;21.58;;;9.98;;
49910;SDS011;35803;53.096;5.844;2023-03-20T06:34:47;22.52;;;9.85;;
49910;SDS011;35803;53.096;5.844;2023-03-20T06:37:12;27.13;;;10.38;;
49910;SDS011;35803;53.096;5.844;2023-03-20T06:39:38;20.45;;;9.35;;
49910;SDS011;35803;53.096;5.844;2023-03-20T06:42:03;25.10;;;10.18;;
49910;SDS011;35803;53.096;5.844;2023-03-20T06:44:29;23.55;;;10.10;;
49910;SDS011;35803;53.096;5.844;2023-03-20T06:46:54;21.02;;;8.93;;
49910;SDS011;35803;53.096;5.844;2023-03-20T06:49:20;21.90;;;9.98;;
49910;SDS011;35803;53.096;5.844;2023-03-20T06:51:46;25.88;;;10.77;;
49910;SDS011;35803;53.096;5.844;2023-03-20T06:54:12;23.58;;;10.20;;
49910;SDS011;35803;53.096;5.844;2023-03-20T06:56:38;24.48;;;9.75;;
49910;SDS011;35803;53.096;5.844;2023-03-20T06:59:03;21.00;;;9.55;;
49910;SDS011;35803;53.096;5.844;2023-03-20T07:01:29;22.77;;;9.80;;
49910;SDS011;35803;53.096;5.844;2023-03-20T07:03:54;20.55;;;10.35;;
49910;SDS011;35803;53.096;5.844;2023-03-20T07:06:20;21.48;;;10.80;;
49910;SDS011;35803;53.096;5.844;2023-03-20T07:08:47;24.20;;;9.93;;
49910;SDS011;35803;53.096;5.844;2023-03-20T07:11:12;20.92;;;10.10;;
49910;SDS011;35803;53.096;5.844;2023-03-20T07:13:38;21.38;;;9.95;;
49910;SDS011;35803;53.096;5.844;2023-03-20T07:16:04;22.30;;;10.38;;
49910;SDS011;35803;53.096;5.844;2023-03-20T07:18:30;23.00;;;10.38;;
49910;SDS011;35803;53.096;5.844;2023-03-20T07:20:59;24.13;;;10.90;;
49910;SDS011;35803;53.096;5.844;2023-03-20T07:23:27;24.90;;;10.25;;
49910;SDS011;35803;53.096;5.844;2023-03-20T07:25:53;22.83;;;10.55;;
49910;SDS011;35803;53.096;5.844;2023-03-20T07:28:19;21.70;;;10.80;;
49910;SDS011;35803;53.096;5.844;2023-03-20T07:30:45;22.95;;;11.55;;
49910;SDS011;35803;53.096;5.844;2023-03-20T07:33:10;18.42;;;9.80;;
49910;SDS011;35803;53.096;5.844;2023-03-20T07:35:35;21.05;;;9.85;;
49910;SDS011;35803;53.096;5.844;2023-03-20T07:38:03;23.42;;;9.48;;
49910;SDS011;35803;53.096;5.844;2023-03-20T07:40:29;21.00;;;9.63;;
49910;SDS011;35803;53.096;5.844;2023-03-20T07:42:55;20.98;;;10.25;;
49910;SDS011;35803;53.096;5.844;2023-03-20T07:45:20;22.27;;;10.38;;
49910;SDS011;35803;53.096;5.844;2023-03-20T07:47:46;19.83;;;9.38;;
49910;SDS011;35803;53.096;5.844;2023-03-20T07:50:12;18.60;;;9.23;;
49910;SDS011;35803;53.096;5.844;2023-03-20T07:52:38;22.38;;;10.57;;
49910;SDS011;35803;53.096;5.844;2023-03-20T07:55:03;20.55;;;9.48;;
49910;SDS011;35803;53.096;5.844;2023-03-20T07:57:30;16.85;;;8.77;;
49910;SDS011;35803;53.096;5.844;2023-03-20T07:59:55;19.48;;;9.52;;
49910;SDS011;35803;53.096;5.844;2023-03-20T08:02:21;18.52;;;9.63;;
49910;SDS011;35803;53.096;5.844;2023-03-20T08:04:46;21.45;;;9.35;;
49910;SDS011;35803;53.096;5.844;2023-03-20T08:07:12;22.63;;;9.38;;
49910;SDS011;35803;53.096;5.844;2023-03-20T08:09:37;18.42;;;8.55;;
49910;SDS011;35803;53.096;5.844;2023-03-20T08:12:03;15.63;;;8.45;;
49910;SDS011;35803;53.096;5.844;2023-03-20T08:14:29;18.75;;;8.85;;
49910;SDS011;35803;53.096;5.844;2023-03-20T08:16:55;15.35;;;8.68;;
49910;SDS011;35803;53.096;5.844;2023-03-20T08:19:20;18.20;;;8.32;;
49910;SDS011;35803;53.096;5.844;2023-03-20T08:21:46;16.95;;;8.65;;
49910;SDS011;35803;53.096;5.844;2023-03-20T08:24:11;15.68;;;8.13;;
49910;SDS011;35803;53.096;5.844;2023-03-20T08:26:37;17.77;;;8.70;;
49910;SDS011;35803;53.096;5.844;2023-03-20T08:29:02;17.13;;;8.15;;
49910;SDS011;35803;53.096;5.844;2023-03-20T08:31:28;14.65;;;7.95;;
49910;SDS011;35803;53.096;5.844;2023-03-20T08:33:54;20.67;;;7.90;;
49910;SDS011;35803;53.096;5.844;2023-03-20T08:36:20;15.27;;;7.70;;
49910;SDS011;35803;53.096;5.844;2023-03-20T08:38:46;13.70;;;7.38;;
49910;SDS011;35803;53.096;5.844;2023-03-20T08:41:13;17.92;;;8.45;;
49910;SDS011;35803;53.096;5.844;2023-03-20T08:43:41;15.48;;;7.80;;
49910;SDS011;35803;53.096;5.844;2023-03-20T08:46:06;15.45;;;7.93;;
49910;SDS011;35803;53.096;5.844;2023-03-20T08:48:34;14.40;;;7.57;;
49910;SDS011;35803;53.096;5.844;2023-03-20T08:51:00;16.27;;;7.43;;
49910;SDS011;35803;53.096;5.844;2023-03-20T08:53:26;15.82;;;7.38;;
49910;SDS011;35803;53.096;5.844;2023-03-20T08:55:52;13.27;;;7.57;;
49910;SDS011;35803;53.096;5.844;2023-03-20T08:58:18;14.60;;;7.93;;
49910;SDS011;35803;53.096;5.844;2023-03-20T09:00:44;13.57;;;7.97;;
49910;SDS011;35803;53.096;5.844;2023-03-20T09:03:11;13.52;;;7.18;;
49910;SDS011;35803;53.096;5.844;2023-03-20T09:05:39;11.95;;;7.20;;
49910;SDS011;35803;53.096;5.844;2023-03-20T09:08:05;14.13;;;7.25;;
49910;SDS011;35803;53.096;5.844;2023-03-20T09:10:31;16.20;;;7.93;;
49910;SDS011;35803;53.096;5.844;2023-03-20T09:12:58;11.52;;;7.65;;
49910;SDS011;35803;53.096;5.844;2023-03-20T09:15:24;14.57;;;8.40;;
49910;SDS011;35803;53.096;5.844;2023-03-20T09:17:49;12.85;;;7.55;;
49910;SDS011;35803;53.096;5.844;2023-03-20T09:20:22;15.32;;;7.80;;
49910;SDS011;35803;53.096;5.844;2023-03-20T09:25:13;13.93;;;7.55;;
49910;SDS011;35803;53.096;5.844;2023-03-20T09:27:39;14.77;;;6.90;;
49910;SDS011;35803;53.096;5.844;2023-03-20T09:30:05;14.23;;;7.68;;
49910;SDS011;35803;53.096;5.844;2023-03-20T09:32:32;11.98;;;7.43;;
49910;SDS011;35803;53.096;5.844;2023-03-20T09:34:59;17.73;;;8.00;;
49910;SDS011;35803;53.096;5.844;2023-03-20T09:37:24;17.15;;;7.70;;
49910;SDS011;35803;53.096;5.844;2023-03-20T09:39:50;14.13;;;7.60;;
49910;SDS011;35803;53.096;5.844;2023-03-20T09:42:50;14.52;;;7.30;;
49910;SDS011;35803;53.096;5.844;2023-03-20T09:45:19;13.82;;;6.85;;
49910;SDS011;35803;53.096;5.844;2023-03-20T09:54:00;12.02;;;7.20;;
49910;SDS011;35803;53.096;5.844;2023-03-20T09:56:32;11.43;;;6.70;;
49910;SDS011;35803;53.096;5.844;2023-03-20T09:59:02;12.98;;;6.15;;
49910;SDS011;35803;53.096;5.844;2023-03-20T10:01:31;13.15;;;6.32;;
49910;SDS011;35803;53.096;5.844;2023-03-20T10:04:03;16.25;;;5.72;;
49910;SDS011;35803;53.096;5.844;2023-03-20T10:06:32;11.52;;;6.00;;
49910;SDS011;35803;53.096;5.844;2023-03-20T10:08:58;10.45;;;5.82;;
49910;SDS011;35803;53.096;5.844;2023-03-20T10:16:51;12.45;;;6.13;;
49910;SDS011;35803;53.096;5.844;2023-03-20T10:19:27;12.73;;;6.32;;
49910;SDS011;35803;53.096;5.844;2023-03-20T10:22:00;10.43;;;6.20;;
49910;SDS011;35803;53.096;5.844;2023-03-20T10:27:36;10.85;;;6.03;;
49910;SDS011;35803;53.096;5.844;2023-03-20T10:36:03;12.73;;;5.95;;
49910;SDS011;35803;53.096;5.844;2023-03-20T10:41:00;11.98;;;6.30;;
49910;SDS011;35803;53.096;5.844;2023-03-20T10:43:30;13.57;;;6.20;;
49910;SDS011;35803;53.096;5.844;2023-03-20T10:48:37;9.63;;;5.85;;
49910;SDS011;35803;53.096;5.844;2023-03-20T10:51:07;14.15;;;6.40;;
49910;SDS011;35803;53.096;5.844;2023-03-20T10:53:44;10.38;;;5.88;;
49910;SDS011;35803;53.096;5.844;2023-03-20T10:56:19;10.80;;;6.00;;
49910;SDS011;35803;53.096;5.844;2023-03-20T10:58:53;10.90;;;5.97;;
49910;SDS011;35803;53.096;5.844;2023-03-20T11:01:25;11.80;;;5.97;;
49910;SDS011;35803;53.096;5.844;2023-03-20T11:03:51;11.18;;;6.70;;
49910;SDS011;35803;53.096;5.844;2023-03-20T11:06:17;16.30;;;6.88;;
49910;SDS011;35803;53.096;5.844;2023-03-20T11:08:49;14.95;;;6.25;;
49910;SDS011;35803;53.096;5.844;2023-03-20T11:11:26;9.60;;;5.90;;
49910;SDS011;35803;53.096;5.844;2023-03-20T11:13:53;13.00;;;6.07;;
49910;SDS011;35803;53.096;5.844;2023-03-20T11:16:20;13.13;;;6.15;;
49910;SDS011;35803;53.096;5.844;2023-03-20T11:18:48;12.65;;;7.00;;
49910;SDS011;35803;53.096;5.844;2023-03-20T11:21:27;13.43;;;6.70;;
49910;SDS011;35803;53.096;5.844;2023-03-20T11:23:53;12.68;;;6.38;;
49910;SDS011;35803;53.096;5.844;2023-03-20T11:26:33;14.10;;;6.55;;
49910;SDS011;35803;53.096;5.844;2023-03-20T11:29:01;13.43;;;6.70;;
49910;SDS011;35803;53.096;5.844;2023-03-20T11:31:32;12.48;;;6.95;;
49910;SDS011;35803;53.096;5.844;2023-03-20T11:36:58;14.63;;;7.32;;
49910;SDS011;35803;53.096;5.844;2023-03-20T11:39:26;12.50;;;7.57;;
49910;SDS011;35803;53.096;5.844;2023-03-20T11:41:54;14.45;;;7.45;;
49910;SDS011;35803;53.096;5.844;2023-03-20T11:44:31;14.05;;;8.13;;
49910;SDS011;35803;53.096;5.844;2023-03-20T11:47:17;14.68;;;8.25;;
49910;SDS011;35803;53.096;5.844;2023-03-20T11:49:47;12.82;;;7.38;;
49910;SDS011;35803;53.096;5.844;2023-03-20T11:52:22;14.07;;;7.97;;
49910;SDS011;35803;53.096;5.844;2023-03-20T11:54:51;12.93;;;8.23;;
49910;SDS011;35803;53.096;5.844;2023-03-20T11:57:33;14.05;;;8.50;;
49910;SDS011;35803;53.096;5.844;2023-03-20T12:02:45;14.10;;;8.27;;
49910;SDS011;35803;53.096;5.844;2023-03-20T12:05:44;13.23;;;8.45;;
49910;SDS011;35803;53.096;5.844;2023-03-20T12:10:31;15.98;;;8.30;;
49910;SDS011;35803;53.096;5.844;2023-03-20T12:13:12;14.02;;;8.55;;
49910;SDS011;35803;53.096;5.844;2023-03-20T12:15:43;14.88;;;8.68;;
49910;SDS011;35803;53.096;5.844;2023-03-20T12:23:43;12.95;;;8.85;;
49910;SDS011;35803;53.096;5.844;2023-03-20T12:26:34;14.70;;;8.48;;
49910;SDS011;35803;53.096;5.844;2023-03-20T12:32:18;11.98;;;8.48;;
49910;SDS011;35803;53.096;5.844;2023-03-20T12:34:36;17.13;;;9.20;;
49910;SDS011;35803;53.096;5.844;2023-03-20T12:37:09;17.15;;;9.15;;
49910;SDS011;35803;53.096;5.844;2023-03-20T12:39:37;16.20;;;9.57;;
49910;SDS011;35803;53.096;5.844;2023-03-20T13:18:00;22.88;;;11.98;;
49910;SDS011;35803;53.096;5.844;2023-03-20T13:31:27;19.80;;;11.63;;
49910;SDS011;35803;53.096;5.844;2023-03-20T13:39:43;19.55;;;11.57;;
49910;SDS011;35803;53.096;5.844;2023-03-20T13:41:51;18.27;;;11.07;;
49910;SDS011;35803;53.096;5.844;2023-03-20T13:44:19;21.08;;;11.80;;
49910;SDS011;35803;53.096;5.844;2023-03-20T13:47:29;20.58;;;11.75;;
49910;SDS011;35803;53.096;5.844;2023-03-20T13:49:37;21.13;;;11.82;;
49910;SDS011;35803;53.096;5.844;2023-03-20T13:54:49;20.67;;;11.48;;
49910;SDS011;35803;53.096;5.844;2023-03-20T13:59:57;19.33;;;11.88;;
49910;SDS011;35803;53.096;5.844;2023-03-20T14:05:29;17.15;;;10.88;;
49910;SDS011;35803;53.096;5.844;2023-03-20T14:08:00;21.75;;;11.18;;
49910;SDS011;35803;53.096;5.844;2023-03-20T14:10:47;16.70;;;10.43;;
49910;SDS011;35803;53.096;5.844;2023-03-20T14:13:14;18.80;;;11.18;;
49910;SDS011;35803;53.096;5.844;2023-03-20T14:16:01;17.05;;;10.35;;
49910;SDS011;35803;53.096;5.844;2023-03-20T14:18:29;17.60;;;10.02;;
49910;SDS011;35803;53.096;5.844;2023-03-20T14:20:58;17.48;;;10.63;;
49910;SDS011;35803;53.096;5.844;2023-03-20T14:23:34;18.45;;;10.63;;
49910;SDS011;35803;53.096;5.844;2023-03-20T14:26:06;20.60;;;10.82;;
49910;SDS011;35803;53.096;5.844;2023-03-20T14:28:42;18.98;;;10.50;;
49910;SDS011;35803;53.096;5.844;2023-03-20T14:39:13;16.02;;;10.02;;
49910;SDS011;35803;53.096;5.844;2023-03-20T14:50:29;16.95;;;9.07;;
49910;SDS011;35803;53.096;5.844;2023-03-20T15:03:44;11.80;;;7.25;;
49910;SDS011;35803;53.096;5.844;2023-03-20T15:06:15;14.95;;;8.52;;
49910;SDS011;35803;53.096;5.844;2023-03-20T15:08:50;11.75;;;7.72;;
49910;SDS011;35803;53.096;5.844;2023-03-20T15:11:18;11.80;;;7.35;;
49910;SDS011;35803;53.096;5.844;2023-03-20T15:13:45;11.10;;;7.47;;
49910;SDS011;35803;53.096;5.844;2023-03-20T15:16:15;12.73;;;7.88;;
49910;SDS011;35803;53.096;5.844;2023-03-20T15:18:49;13.75;;;8.05;;
49910;SDS011;35803;53.096;5.844;2023-03-20T15:23:43;13.68;;;8.15;;
49910;SDS011;35803;53.096;5.844;2023-03-20T15:26:10;12.95;;;8.13;;
49910;SDS011;35803;53.096;5.844;2023-03-20T15:28:38;12.80;;;7.70;;
49910;SDS011;35803;53.096;5.844;2023-03-20T15:31:05;13.63;;;8.10;;
49910;SDS011;35803;53.096;5.844;2023-03-20T15:33:32;12.65;;;7.72;;
49910;SDS011;35803;53.096;5.844;2023-03-20T15:36:06;11.55;;;7.70;;
49910;SDS011;35803;53.096;5.844;2023-03-20T15:38:33;10.30;;;6.72;;
49910;SDS011;35803;53.096;5.844;2023-03-20T15:41:02;10.27;;;6.80;;
49910;SDS011;35803;53.096;5.844;2023-03-20T15:43:32;10.27;;;6.78;;
49910;SDS011;35803;53.096;5.844;2023-03-20T15:46:02;9.98;;;6.75;;
49910;SDS011;35803;53.096;5.844;2023-03-20T15:48:28;9.70;;;6.43;;
49910;SDS011;35803;53.096;5.844;2023-03-20T15:50:54;10.50;;;7.22;;
49910;SDS011;35803;53.096;5.844;2023-03-20T15:56:01;7.87;;;6.13;;
49910;SDS011;35803;53.096;5.844;2023-03-20T15:58:28;6.90;;;5.45;;
49910;SDS011;35803;53.096;5.844;2023-03-20T16:00:56;9.13;;;6.50;;
49910;SDS011;35803;53.096;5.844;2023-03-20T16:03:22;9.43;;;6.22;;
49910;SDS011;35803;53.096;5.844;2023-03-20T16:05:49;8.57;;;6.25;;
49910;SDS011;35803;53.096;5.844;2023-03-20T16:13:28;13.30;;;7.90;;
49910;SDS011;35803;53.096;5.844;2023-03-20T16:15:58;8.55;;;6.43;;
49910;SDS011;35803;53.096;5.844;2023-03-20T16:18:24;8.40;;;5.95;;
49910;SDS011;35803;53.096;5.844;2023-03-20T16:20:53;8.65;;;6.45;;
49910;SDS011;35803;53.096;5.844;2023-03-20T16:23:26;9.48;;;6.22;;
49910;SDS011;35803;53.096;5.844;2023-03-20T16:25:55;8.32;;;5.97;;
49910;SDS011;35803;53.096;5.844;2023-03-20T16:28:23;9.32;;;6.43;;
49910;SDS011;35803;53.096;5.844;2023-03-20T16:30:50;8.52;;;6.35;;
49910;SDS011;35803;53.096;5.844;2023-03-20T16:33:16;8.25;;;6.18;;
49910;SDS011;35803;53.096;5.844;2023-03-20T16:35:43;11.00;;;6.93;;
49910;SDS011;35803;53.096;5.844;2023-03-20T16:38:19;11.07;;;6.95;;
49910;SDS011;35803;53.096;5.844;2023-03-20T16:40:52;11.55;;;7.70;;
49910;SDS011;35803;53.096;5.844;2023-03-20T16:43:21;11.73;;;7.57;;
49910;SDS011;35803;53.096;5.844;2023-03-20T16:45:52;11.52;;;7.57;;
49910;SDS011;35803;53.096;5.844;2023-03-20T16:48:30;11.27;;;7.65;;
49910;SDS011;35803;53.096;5.844;2023-03-20T16:51:01;10.80;;;7.25;;
49910;SDS011;35803;53.096;5.844;2023-03-20T16:53:46;11.90;;;7.55;;
49910;SDS011;35803;53.096;5.844;2023-03-20T16:56:15;13.18;;;7.68;;
49910;SDS011;35803;53.096;5.844;2023-03-20T16:58:43;14.70;;;8.00;;
49910;SDS011;35803;53.096;5.844;2023-03-20T17:01:19;11.43;;;7.78;;
49910;SDS011;35803;53.096;5.844;2023-03-20T17:03:47;12.43;;;7.72;;
49910;SDS011;35803;53.096;5.844;2023-03-20T17:08:49;13.57;;;8.48;;
49910;SDS011;35803;53.096;5.844;2023-03-20T17:11:34;12.15;;;8.13;;
49910;SDS011;35803;53.096;5.844;2023-03-20T17:14:00;11.98;;;7.72;;
49910;SDS011;35803;53.096;5.844;2023-03-20T17:16:28;10.73;;;7.85;;
49910;SDS011;35803;53.096;5.844;2023-03-20T17:21:31;14.68;;;8.30;;
49910;SDS011;35803;53.096;5.844;2023-03-20T17:23:57;14.77;;;8.90;;
49910;SDS011;35803;53.096;5.844;2023-03-20T17:26:22;12.35;;;7.85;;
49910;SDS011;35803;53.096;5.844;2023-03-20T17:28:48;16.48;;;8.25;;
49910;SDS011;35803;53.096;5.844;2023-03-20T17:31:15;14.10;;;8.90;;
49910;SDS011;35803;53.096;5.844;2023-03-20T17:33:41;14.38;;;9.00;;
49910;SDS011;35803;53.096;5.844;2023-03-20T17:38:44;16.27;;;9.18;;
49910;SDS011;35803;53.096;5.844;2023-03-20T17:41:13;20.00;;;10.32;;
49910;SDS011;35803;53.096;5.844;2023-03-20T17:43:40;18.60;;;10.30;;
49910;SDS011;35803;53.096;5.844;2023-03-20T17:46:08;15.98;;;9.98;;
49910;SDS011;35803;53.096;5.844;2023-03-20T17:48:39;15.43;;;9.52;;
49910;SDS011;35803;53.096;5.844;2023-03-20T17:51:04;15.63;;;9.18;;
49910;SDS011;35803;53.096;5.844;2023-03-20T17:53:30;16.30;;;9.02;;
49910;SDS011;35803;53.096;5.844;2023-03-20T17:55:55;19.10;;;9.23;;
49910;SDS011;35803;53.096;5.844;2023-03-20T17:58:22;16.67;;;9.48;;
49910;SDS011;35803;53.096;5.844;2023-03-20T18:00:51;17.65;;;9.50;;
49910;SDS011;35803;53.096;5.844;2023-03-20T18:03:18;16.77;;;9.20;;
49910;SDS011;35803;53.096;5.844;2023-03-20T18:05:44;15.98;;;9.20;;
49910;SDS011;35803;53.096;5.844;2023-03-20T18:08:11;16.70;;;8.80;;
49910;SDS011;35803;53.096;5.844;2023-03-20T18:10:41;19.13;;;9.57;;
49910;SDS011;35803;53.096;5.844;2023-03-20T18:13:07;19.25;;;10.30;;
49910;SDS011;35803;53.096;5.844;2023-03-20T18:15:33;18.80;;;10.00;;
49910;SDS011;35803;53.096;5.844;2023-03-20T18:17:58;22.20;;;9.98;;